createdAt,value
2023-04-07T00:00:23.361Z,100422.88
2023-04-07T00:02:51.756Z,100425.41
2023-04-07T00:05:19.774Z,100424.00
2023-04-07T00:07:55.746Z,100416.66
2023-04-07T00:10:26.821Z,100418.72
2023-04-07T00:12:54.561Z,100420.28
2023-04-07T00:15:22.387Z,100409.06
2023-04-07T00:17:50.486Z,100424.50
2023-04-07T00:20:19.082Z,100420.38
2023-04-07T00:22:46.915Z,100410.91
2023-04-07T00:25:14.652Z,100402.06
2023-04-07T00:27:43.669Z,100400.59
2023-04-07T00:30:12.131Z,100399.63
2023-04-07T00:32:40.062Z,100391.09
2023-04-07T00:35:08.604Z,100384.34
2023-04-07T00:37:37.484Z,100377.50
2023-04-07T00:40:06.524Z,100373.31
2023-04-07T00:42:34.711Z,100368.06
2023-04-07T00:45:05.085Z,100370.78
2023-04-07T00:47:33.234Z,100369.00
2023-04-07T00:50:01.331Z,100369.91
2023-04-07T00:52:30.088Z,100371.06
2023-04-07T00:54:57.865Z,100373.56
2023-04-07T00:57:26.373Z,100359.66
2023-04-07T00:59:55.039Z,100360.59
2023-04-07T01:02:33.425Z,100351.63
2023-04-07T01:05:10.741Z,100356.34
2023-04-07T01:07:57.054Z,100358.91
2023-04-07T01:10:32.916Z,100350.19
2023-04-07T01:14:03.742Z,100348.44
2023-04-07T01:16:48.212Z,100346.69
2023-04-07T01:19:35.045Z,100338.84
2023-04-07T01:22:05.452Z,100336.16
2023-04-07T01:24:54.312Z,100343.28
2023-04-07T01:27:35.300Z,100334.84
2023-04-07T01:30:05.545Z,100336.25
2023-04-07T01:32:35.480Z,100330.44
2023-04-07T01:35:06.231Z,100327.13
2023-04-07T01:37:35.506Z,100333.25
2023-04-07T01:40:04.644Z,100327.97
2023-04-07T01:42:33.715Z,100326.13
2023-04-07T01:45:04.477Z,100316.97
2023-04-07T01:47:33.712Z,100317.97
2023-04-07T01:50:04.609Z,100315.25
2023-04-07T01:52:33.313Z,100310.88
2023-04-07T01:55:01.642Z,100311.03
2023-04-07T01:57:31.292Z,100311.09
2023-04-07T02:00:07.661Z,100304.31
2023-04-07T02:02:46.564Z,100310.47
2023-04-07T02:05:18.091Z,100307.88
2023-04-07T02:07:53.592Z,100303.66
2023-04-07T02:10:24.832Z,100303.88
2023-04-07T02:12:55.195Z,100304.66
2023-04-07T02:15:25.547Z,100300.44
2023-04-07T02:17:57.324Z,100310.03
2023-04-07T02:20:26.176Z,100293.69
2023-04-07T02:22:55.877Z,100298.28
2023-04-07T02:25:25.825Z,100297.34
2023-04-07T02:27:56.488Z,100300.03
2023-04-07T02:30:27.429Z,100299.19
2023-04-07T02:32:55.437Z,100302.69
2023-04-07T02:35:23.884Z,100297.53
2023-04-07T02:37:52.354Z,100290.56
2023-04-07T02:40:20.105Z,100292.28
2023-04-07T02:42:48.294Z,100294.88
2023-04-07T02:45:16.097Z,100293.34
2023-04-07T02:47:45.828Z,100296.06
2023-04-07T02:50:13.604Z,100291.78
2023-04-07T02:52:41.968Z,100293.69
2023-04-07T02:55:13.568Z,100289.63
2023-04-07T02:57:41.829Z,100298.09
2023-04-07T03:00:17.445Z,100295.53
2023-04-07T03:03:02.630Z,100289.69
2023-04-07T03:05:33.863Z,100288.81
2023-04-07T03:08:03.202Z,100285.28
2023-04-07T03:10:31.164Z,100286.94
2023-04-07T03:12:58.881Z,100287.78
2023-04-07T03:15:27.180Z,100280.03
2023-04-07T03:17:55.144Z,100282.59
2023-04-07T03:20:24.990Z,100280.13
2023-04-07T03:22:52.687Z,100281.13
2023-04-07T03:25:27.398Z,100284.88
2023-04-07T03:27:56.116Z,100285.19
2023-04-07T03:30:27.524Z,100282.63
2023-04-07T03:32:55.321Z,100286.91
2023-04-07T03:35:24.766Z,100278.38
2023-04-07T03:37:52.754Z,100274.09
2023-04-07T03:40:21.879Z,100273.06
2023-04-07T03:42:50.151Z,100274.88
2023-04-07T03:45:18.584Z,100274.06
2023-04-07T03:47:51.706Z,100278.19
2023-04-07T03:50:19.691Z,100277.31
2023-04-07T03:53:10.570Z,100273.03
2023-04-07T03:55:38.772Z,100273.78
2023-04-07T03:58:14.939Z,100271.91
2023-04-07T04:00:43.968Z,100268.31
2023-04-07T04:03:13.527Z,100266.47
2023-04-07T04:05:58.274Z,100268.09
2023-04-07T04:08:32.096Z,100265.47
2023-04-07T04:10:59.865Z,100261.06
2023-04-07T04:13:34.823Z,100264.47
2023-04-07T04:16:06.146Z,100262.56
2023-04-07T04:18:35.422Z,100257.16
2023-04-07T04:21:03.471Z,100264.00
2023-04-07T04:23:34.824Z,100265.78
2023-04-07T04:26:04.946Z,100268.28
2023-04-07T04:28:34.440Z,100266.44
2023-04-07T04:31:04.085Z,100266.44
2023-04-07T04:33:37.514Z,100262.91
2023-04-07T04:36:06.057Z,100271.47
2023-04-07T04:38:35.631Z,100274.94
2023-04-07T04:41:14.302Z,100277.53
2023-04-07T04:43:42.571Z,100275.72
2023-04-07T04:46:12.688Z,100279.25
2023-04-07T04:48:44.557Z,100290.59
2023-04-07T04:51:12.490Z,100279.47
2023-04-07T04:53:43.688Z,100285.50
2023-04-07T04:56:11.563Z,100288.06
2023-04-07T04:58:46.281Z,100280.19
2023-04-07T05:01:20.392Z,100281.84
2023-04-07T05:03:55.025Z,100278.31
2023-04-07T05:06:27.593Z,100278.16
2023-04-07T05:09:00.890Z,100279.88
2023-04-07T05:11:34.074Z,100279.88
2023-04-07T05:14:01.791Z,100284.06
2023-04-07T05:16:29.918Z,100285.78
2023-04-07T05:18:59.158Z,100286.53
2023-04-07T05:21:28.377Z,100278.81
2023-04-07T05:24:01.399Z,100279.56
2023-04-07T05:26:31.194Z,100281.25
2023-04-07T05:28:59.732Z,100275.22
2023-04-07T05:31:27.461Z,100283.78
2023-04-07T05:33:58.523Z,100278.56
2023-04-07T05:36:31.458Z,100276.81
2023-04-07T05:38:59.200Z,100283.63
2023-04-07T05:41:29.419Z,100279.31
2023-04-07T05:43:57.819Z,100282.75
2023-04-07T05:46:27.388Z,100271.47
2023-04-07T05:48:59.201Z,100278.25
2023-04-07T05:51:31.459Z,100270.41
2023-04-07T05:54:03.770Z,100272.16
2023-04-07T05:56:34.033Z,100267.66
2023-04-07T05:59:02.304Z,100266.69
2023-04-07T06:01:30.498Z,100266.78
2023-04-07T06:03:59.695Z,100268.50
2023-04-07T06:06:28.690Z,100277.00
2023-04-07T06:08:56.480Z,100280.41
2023-04-07T06:11:25.662Z,100280.25
2023-04-07T06:13:55.502Z,100280.91
2023-04-07T06:16:23.176Z,100280.78
2023-04-07T06:18:51.606Z,100291.06
2023-04-07T06:21:19.374Z,100286.72
2023-04-07T06:23:48.056Z,100290.00
2023-04-07T06:26:15.965Z,100285.66
2023-04-07T06:28:43.884Z,100289.81
2023-04-07T06:31:13.169Z,100296.47
2023-04-07T06:33:41.123Z,100295.34
2023-04-07T06:36:09.218Z,100293.50
2023-04-07T06:38:37.194Z,100298.44
2023-04-07T06:41:05.456Z,100294.06
2023-04-07T06:43:33.440Z,100289.59
2023-04-07T06:46:04.281Z,100295.13
2023-04-07T06:48:33.699Z,100300.34
2023-04-07T06:51:05.344Z,100297.66
2023-04-07T06:53:33.366Z,100296.97
2023-04-07T06:56:06.253Z,100293.38
2023-04-07T06:58:34.329Z,100285.63
2023-04-07T07:01:02.710Z,100288.03
2023-04-07T07:03:31.587Z,100287.00
2023-04-07T07:06:01.064Z,100290.28
2023-04-07T07:08:29.763Z,100292.91
2023-04-07T07:10:57.893Z,100296.94
2023-04-07T07:13:27.205Z,100293.94
2023-04-07T07:15:55.540Z,100295.56
2023-04-07T07:18:23.529Z,100298.13
2023-04-07T07:20:51.658Z,100287.72
2023-04-07T07:23:21.227Z,100290.84
2023-04-07T07:25:48.949Z,100292.16
2023-04-07T07:28:16.665Z,100285.31
2023-04-07T07:30:44.349Z,100290.16
2023-04-07T07:33:12.140Z,100285.84
2023-04-07T07:35:40.540Z,100286.09
2023-04-07T07:38:08.927Z,100280.97
2023-04-07T07:40:37.928Z,100282.34
2023-04-07T07:43:06.191Z,100285.75
2023-04-07T07:45:34.362Z,100286.03
2023-04-07T07:48:02.513Z,100289.91
2023-04-07T07:50:30.943Z,100294.69
2023-04-07T07:52:58.817Z,100297.75
2023-04-07T07:55:26.580Z,100289.66
2023-04-07T07:57:56.514Z,100299.38
2023-04-07T08:00:25.049Z,100304.09
2023-04-07T08:02:53.168Z,100296.44
2023-04-07T08:05:22.264Z,100301.59
2023-04-07T08:07:52.705Z,100307.56
2023-04-07T08:10:21.785Z,100311.25
2023-04-07T08:12:49.689Z,100310.28
2023-04-07T08:15:18.788Z,100309.25
2023-04-07T08:17:46.493Z,100316.97
2023-04-07T08:20:15.277Z,100318.41
2023-04-07T08:22:43.679Z,100319.47
2023-04-07T08:25:12.231Z,100320.00
2023-04-07T08:27:40.258Z,100324.28
2023-04-07T08:30:09.342Z,100323.88
2023-04-07T08:32:40.595Z,100321.41
2023-04-07T08:35:09.142Z,100322.56
2023-04-07T08:37:38.360Z,100332.72
2023-04-07T08:40:07.189Z,100319.97
2023-04-07T08:42:36.890Z,100327.50
2023-04-07T08:45:06.366Z,100330.69
2023-04-07T08:47:36.455Z,100327.81
2023-04-07T08:50:07.977Z,100328.13
2023-04-07T08:52:41.197Z,100332.13
2023-04-07T08:55:11.041Z,100334.59
2023-04-07T08:57:39.155Z,100330.97
2023-04-07T09:00:08.123Z,100331.63
2023-04-07T09:02:37.542Z,100330.91
2023-04-07T09:05:09.219Z,100341.31
2023-04-07T09:07:37.872Z,100336.47
2023-04-07T09:10:07.379Z,100351.31
2023-04-07T09:12:35.836Z,100345.09
2023-04-07T09:15:03.858Z,100349.63
2023-04-07T09:17:31.807Z,100342.09
2023-04-07T09:20:02.012Z,100350.59
2023-04-07T09:22:39.057Z,100344.56
2023-04-07T09:25:15.016Z,100352.69
2023-04-07T09:27:42.961Z,100351.78
2023-04-07T09:30:16.022Z,100353.38
2023-04-07T09:32:43.778Z,100355.59
2023-04-07T09:35:11.588Z,100352.75
2023-04-07T09:37:40.611Z,100352.75
2023-04-07T09:40:10.294Z,100354.38
2023-04-07T09:42:46.251Z,100355.44
2023-04-07T09:45:23.816Z,100359.34
2023-04-07T09:47:59.234Z,100362.13
2023-04-07T09:50:35.195Z,100366.25
2023-04-07T09:53:05.147Z,100359.41
2023-04-07T09:55:33.859Z,100361.22
2023-04-07T09:58:02.634Z,100362.44
2023-04-07T10:00:30.715Z,100359.84
2023-04-07T10:02:59.946Z,100356.88
2023-04-07T10:05:28.933Z,100362.19
2023-04-07T10:07:57.258Z,100368.16
2023-04-07T10:10:28.907Z,100368.47
2023-04-07T10:12:58.361Z,100367.25
2023-04-07T10:15:26.628Z,100367.13
2023-04-07T10:17:56.858Z,100368.66
2023-04-07T10:20:25.367Z,100377.53
2023-04-07T10:22:56.946Z,100376.31
2023-04-07T10:25:27.164Z,100377.72
2023-04-07T10:28:00.776Z,100378.31
2023-04-07T10:30:31.663Z,100376.97
2023-04-07T10:33:00.353Z,100378.03
2023-04-07T10:35:28.567Z,100375.63
2023-04-07T10:38:15.111Z,100378.34
2023-04-07T10:40:44.622Z,100375.81
2023-04-07T10:43:13.667Z,100376.72
2023-04-07T10:46:02.339Z,100377.81
2023-04-07T10:48:33.142Z,100376.38
2023-04-07T10:51:18.880Z,100382.31
2023-04-07T10:54:22.535Z,100373.81
2023-04-07T10:57:14.826Z,100374.16
2023-04-07T11:00:04.589Z,100375.97
2023-04-07T11:02:36.585Z,100385.38
2023-04-07T11:05:05.515Z,100385.09
2023-04-07T11:07:51.221Z,100378.06
2023-04-07T11:10:21.973Z,100375.00
2023-04-07T11:13:11.477Z,100380.50
2023-04-07T11:15:41.050Z,100374.13
2023-04-07T11:18:14.904Z,100378.97
2023-04-07T11:20:46.078Z,100375.97
2023-04-07T11:23:14.879Z,100374.53
2023-04-07T11:25:46.022Z,100377.09
2023-04-07T11:28:16.808Z,100381.13
2023-04-07T11:30:51.683Z,100380.88
2023-04-07T11:33:21.076Z,100383.25
2023-04-07T11:35:55.740Z,100384.91
2023-04-07T11:38:25.720Z,100387.59
2023-04-07T11:40:54.617Z,100390.28
2023-04-07T11:43:27.162Z,100393.31
2023-04-07T11:46:06.342Z,100394.22
2023-04-07T11:48:37.525Z,100402.63
2023-04-07T11:51:06.748Z,100397.69
2023-04-07T11:53:38.596Z,100401.94
2023-04-07T11:56:10.843Z,100400.59
2023-04-07T11:58:47.935Z,100406.00
2023-04-07T12:01:19.541Z,100408.88
2023-04-07T12:03:58.920Z,100406.94
2023-04-07T12:06:35.243Z,100412.25
2023-04-07T12:09:05.221Z,100400.28
2023-04-07T12:11:36.025Z,100403.88
2023-04-07T12:14:06.853Z,100409.88
2023-04-07T12:16:39.554Z,100409.97
2023-04-07T12:19:07.908Z,100408.53
2023-04-07T12:21:35.792Z,100421.44
2023-04-07T12:24:03.628Z,100417.25
2023-04-07T12:26:31.957Z,100420.69
2023-04-07T12:29:05.017Z,100424.66
2023-04-07T12:31:34.674Z,100423.34
2023-04-07T12:34:02.392Z,100421.88
2023-04-07T12:36:30.194Z,100414.03
2023-04-07T12:38:59.100Z,100417.81
2023-04-07T12:41:27.686Z,100420.69
2023-04-07T12:43:55.465Z,100420.78
2023-04-07T12:46:23.259Z,100426.63
2023-04-07T12:48:52.614Z,100427.72
2023-04-07T12:51:20.517Z,100428.78
2023-04-07T12:53:48.453Z,100428.28
2023-04-07T12:56:16.293Z,100426.41
2023-04-07T12:58:44.104Z,100426.16
2023-04-07T13:01:12.037Z,100427.72
2023-04-07T13:03:40.069Z,100428.63
2023-04-07T13:06:10.857Z,100433.16
2023-04-07T13:08:38.856Z,100432.94
2023-04-07T13:11:06.660Z,100432.78
2023-04-07T13:13:35.010Z,100435.13
2023-04-07T13:16:02.801Z,100433.69
2023-04-07T13:18:31.214Z,100432.06
2023-04-07T13:21:30.631Z,100431.47
2023-04-07T13:23:50.498Z,100431.41
2023-04-07T13:26:18.723Z,100423.94
2023-04-07T13:28:47.792Z,100431.31
2023-04-07T13:31:16.330Z,100426.56
2023-04-07T13:33:44.300Z,100433.75
2023-04-07T13:36:12.030Z,100427.00
2023-04-07T13:38:41.987Z,100433.16
2023-04-07T13:41:12.252Z,100432.72
2023-04-07T13:43:40.230Z,100439.34
2023-04-07T13:46:17.083Z,100437.97
2023-04-07T13:48:53.115Z,100431.56
2023-04-07T13:51:21.374Z,100438.19
2023-04-07T13:53:49.797Z,100443.34
2023-04-07T13:56:19.354Z,100438.28
2023-04-07T13:58:48.038Z,100436.78
2023-04-07T14:01:16.087Z,100436.34
2023-04-07T14:03:44.156Z,100445.03
2023-04-07T14:06:11.965Z,100443.41
2023-04-07T14:08:40.035Z,100440.38
2023-04-07T14:11:07.740Z,100435.41
2023-04-07T14:13:38.229Z,100436.38
2023-04-07T14:16:07.974Z,100434.44
2023-04-07T14:18:35.812Z,100435.38
2023-04-07T14:21:03.595Z,100437.72
2023-04-07T14:23:37.124Z,100439.06
2023-04-07T14:26:18.965Z,100439.41
2023-04-07T14:28:48.657Z,100439.56
2023-04-07T14:31:17.955Z,100432.13
2023-04-07T14:33:46.691Z,100432.91
2023-04-07T14:36:15.721Z,100433.84
2023-04-07T14:38:44.331Z,100433.44
2023-04-07T14:41:13.020Z,100436.56
2023-04-07T14:43:41.388Z,100435.97
2023-04-07T14:46:12.284Z,100428.31
2023-04-07T14:48:40.118Z,100438.44
2023-04-07T14:51:12.796Z,100435.47
2023-04-07T14:53:41.804Z,100437.09
2023-04-07T14:56:10.662Z,100436.03
2023-04-07T14:58:39.116Z,100441.19
2023-04-07T15:01:07.468Z,100439.94
2023-04-07T15:03:37.089Z,100439.31
2023-04-07T15:06:08.359Z,100439.69
2023-04-07T15:08:36.057Z,100437.38
2023-04-07T15:11:05.624Z,100440.47
2023-04-07T15:13:33.381Z,100444.81
2023-04-07T15:16:07.553Z,100439.50
2023-04-07T15:18:37.140Z,100446.66
2023-04-07T15:21:06.005Z,100447.59
2023-04-07T15:23:34.529Z,100447.09
2023-04-07T15:26:03.012Z,100445.56
2023-04-07T15:28:31.186Z,100446.22
2023-04-07T15:31:01.050Z,100457.22
2023-04-07T15:33:29.246Z,100455.47
2023-04-07T15:35:59.901Z,100453.06
2023-04-07T15:38:29.659Z,100458.56
2023-04-07T15:40:58.723Z,100460.47
2023-04-07T15:43:27.155Z,100456.88
2023-04-07T15:45:56.197Z,100455.91
2023-04-07T15:48:24.226Z,100447.97
2023-04-07T15:50:52.374Z,100456.75
2023-04-07T15:53:21.899Z,100451.13
2023-04-07T15:55:50.735Z,100460.72
2023-04-07T15:58:18.784Z,100454.81
2023-04-07T16:00:46.964Z,100462.22
2023-04-07T16:03:15.757Z,100461.19
2023-04-07T16:05:44.092Z,100462.97
2023-04-07T16:08:13.878Z,100465.41
2023-04-07T16:10:43.239Z,100460.47
2023-04-07T16:13:12.214Z,100463.44
2023-04-07T16:15:41.661Z,100466.22
2023-04-07T16:18:10.982Z,100467.94
2023-04-07T16:20:39.650Z,100468.63
2023-04-07T16:23:07.359Z,100478.47
2023-04-07T16:25:35.237Z,100477.66
2023-04-07T16:28:04.479Z,100473.41
2023-04-07T16:30:32.308Z,100479.41
2023-04-07T16:33:00.563Z,100480.19
2023-04-07T16:35:29.134Z,100479.25
2023-04-07T16:38:01.456Z,100481.34
2023-04-07T16:40:29.206Z,100487.22
2023-04-07T16:42:56.913Z,100485.34
2023-04-07T16:45:25.991Z,100485.97
2023-04-07T16:47:53.994Z,100500.13
2023-04-07T16:50:21.910Z,100493.81
2023-04-07T16:52:49.698Z,100490.84
2023-04-07T16:55:17.469Z,100497.56
2023-04-07T16:57:45.312Z,100504.22
2023-04-07T17:00:15.032Z,100506.66
2023-04-07T17:02:44.165Z,100510.19
2023-04-07T17:05:11.997Z,100512.31
2023-04-07T17:07:40.637Z,100508.81
2023-04-07T17:10:09.497Z,100522.16
2023-04-07T17:12:37.208Z,100519.53
2023-04-07T17:15:05.481Z,100516.94
2023-04-07T17:17:33.319Z,100524.63
2023-04-07T17:20:03.370Z,100526.84
2023-04-07T17:22:31.149Z,100536.06
2023-04-07T17:24:58.786Z,100536.69
2023-04-07T17:27:26.496Z,100552.03
2023-04-07T17:29:54.658Z,100554.94
2023-04-07T17:32:23.074Z,100549.13
2023-04-07T17:34:51.098Z,100560.53
2023-04-07T17:37:20.715Z,100558.69
2023-04-07T17:39:49.293Z,100560.53
2023-04-07T17:42:17.266Z,100567.66
2023-04-07T17:44:45.510Z,100566.34
2023-04-07T17:47:13.428Z,100580.66
2023-04-07T17:49:42.275Z,100574.38
2023-04-07T17:52:10.200Z,100582.31
2023-04-07T17:54:39.424Z,100583.09
2023-04-07T17:57:08.330Z,100584.59
2023-04-07T17:59:36.325Z,100591.72
2023-04-07T18:02:09.033Z,100598.88
2023-04-07T18:04:37.856Z,100589.53
2023-04-07T18:07:06.344Z,100601.88
2023-04-07T18:09:34.731Z,100610.50
2023-04-07T18:12:04.008Z,100605.50
2023-04-07T18:14:31.941Z,100601.91
2023-04-07T18:17:00.509Z,100607.94
2023-04-07T18:19:30.002Z,100610.69
2023-04-07T18:21:59.804Z,100601.91
2023-04-07T18:24:28.172Z,100611.53
2023-04-07T18:26:56.937Z,100615.22
2023-04-07T18:29:27.218Z,100624.00
2023-04-07T18:31:56.027Z,100619.91
2023-04-07T18:34:26.024Z,100626.00
2023-04-07T18:36:54.001Z,100630.31
2023-04-07T18:39:22.123Z,100629.59
2023-04-07T18:41:50.894Z,100640.19
2023-04-07T18:44:18.695Z,100638.34
2023-04-07T18:46:48.439Z,100639.44
2023-04-07T18:49:17.347Z,100655.03
2023-04-07T18:51:46.961Z,100650.88
2023-04-07T18:54:15.393Z,100646.72
2023-04-07T18:56:43.418Z,100651.94
2023-04-07T18:59:11.370Z,100660.66
2023-04-07T19:01:40.324Z,100658.88
2023-04-07T19:04:10.058Z,100653.66
2023-04-07T19:06:38.207Z,100657.72
2023-04-07T19:09:06.312Z,100668.06
2023-04-07T19:11:35.726Z,100673.25
2023-04-07T19:14:04.789Z,100671.19
2023-04-07T19:16:33.062Z,100676.28
2023-04-07T19:19:01.229Z,100680.59
2023-04-07T19:21:31.024Z,100679.72
2023-04-07T19:23:59.784Z,100684.03
2023-04-07T19:26:29.530Z,100688.44
2023-04-07T19:28:58.112Z,100685.06
2023-04-07T19:31:26.389Z,100693.75
2023-04-07T19:33:54.450Z,100689.47
2023-04-07T19:36:22.294Z,100696.41
2023-04-07T19:38:51.797Z,100690.41
2023-04-07T19:41:20.187Z,100691.19
2023-04-07T19:43:48.187Z,100695.44
2023-04-07T19:46:16.897Z,100700.59
2023-04-07T19:48:44.740Z,100699.63
2023-04-07T19:51:12.856Z,100705.66
2023-04-07T19:53:40.710Z,100707.41
2023-04-07T19:56:11.098Z,100704.81
2023-04-07T19:58:39.249Z,100703.91
2023-04-07T20:01:07.629Z,100712.53
2023-04-07T20:03:36.704Z,100714.38
2023-04-07T20:06:06.540Z,100711.19
2023-04-07T20:08:34.312Z,100710.47
2023-04-07T20:11:02.523Z,100721.72
2023-04-07T20:13:35.028Z,100714.13
2023-04-07T20:16:02.912Z,100718.50
2023-04-07T20:18:32.142Z,100724.53
2023-04-07T20:21:00.854Z,100728.84
2023-04-07T20:23:29.245Z,100728.81
2023-04-07T20:25:57.306Z,100728.75
2023-04-07T20:28:25.461Z,100727.94
2023-04-07T20:30:55.275Z,100731.31
2023-04-07T20:33:23.339Z,100728.84
2023-04-07T20:35:52.524Z,100722.88
2023-04-07T20:38:22.291Z,100736.94
2023-04-07T20:40:50.198Z,100724.81
2023-04-07T20:43:20.728Z,100727.44
2023-04-07T20:45:48.955Z,100735.31
2023-04-07T20:48:23.845Z,100724.53
2023-04-07T20:50:52.028Z,100729.34
2023-04-07T20:53:19.903Z,100732.38
2023-04-07T20:55:48.307Z,100732.19
2023-04-07T20:58:17.696Z,100737.81
2023-04-07T21:00:46.006Z,100732.88
2023-04-07T21:03:17.345Z,100734.91
2023-04-07T21:05:48.232Z,100739.69
2023-04-07T21:08:16.172Z,100740.78
2023-04-07T21:10:43.991Z,100743.44
2023-04-07T21:13:11.892Z,100745.31
2023-04-07T21:15:42.223Z,100743.75
2023-04-07T21:18:10.680Z,100742.25
2023-04-07T21:20:38.793Z,100745.78
2023-04-07T21:23:08.717Z,100744.84
2023-04-07T21:25:38.127Z,100736.97
2023-04-07T21:28:06.293Z,100737.91
2023-04-07T21:30:34.243Z,100738.81
2023-04-07T21:33:02.621Z,100735.31
2023-04-07T21:35:30.920Z,100737.72
2023-04-07T21:37:58.866Z,100743.16
2023-04-07T21:40:29.666Z,100739.53
2023-04-07T21:42:57.615Z,100741.28
2023-04-07T21:45:25.695Z,100748.09
2023-04-07T21:47:53.828Z,100743.69
2023-04-07T21:50:22.285Z,100747.06
2023-04-07T21:52:51.443Z,100742.66
2023-04-07T21:55:21.207Z,100739.19
2023-04-07T21:57:51.551Z,100743.69
2023-04-07T22:00:19.671Z,100742.81
2023-04-07T22:02:47.795Z,100750.69
2023-04-07T22:05:16.042Z,100751.47
2023-04-07T22:07:45.342Z,100748.94
2023-04-07T22:10:13.227Z,100749.75
2023-04-07T22:12:41.085Z,100740.97
2023-04-07T22:15:13.067Z,100753.25
2023-04-07T22:17:41.640Z,100755.91
2023-04-07T22:20:11.438Z,100754.22
2023-04-07T22:22:39.470Z,100762.91
2023-04-07T22:25:08.300Z,100762.97
2023-04-07T22:27:36.317Z,100756.72
2023-04-07T22:30:05.905Z,100765.31
2023-04-07T22:32:35.398Z,100768.63
2023-04-07T22:35:03.329Z,100769.34
2023-04-07T22:37:31.324Z,100773.44
2023-04-07T22:39:58.975Z,100774.06
2023-04-07T22:42:26.643Z,100777.47
2023-04-07T22:44:54.386Z,100777.47
2023-04-07T22:47:22.658Z,100770.59
2023-04-07T22:49:51.939Z,100774.91
2023-04-07T22:52:20.159Z,100769.75
2023-04-07T22:54:48.119Z,100777.50
2023-04-07T22:57:15.940Z,100779.13
2023-04-07T22:59:43.583Z,100772.97
2023-04-07T23:02:11.598Z,100769.56
2023-04-07T23:04:39.326Z,100776.44
2023-04-07T23:07:08.918Z,100771.19
2023-04-07T23:09:36.674Z,100777.19
2023-04-07T23:12:04.408Z,100780.72
2023-04-07T23:14:32.337Z,100774.69
2023-04-07T23:17:01.107Z,100782.41
2023-04-07T23:19:29.199Z,100784.22
2023-04-07T23:21:56.913Z,100790.91
2023-04-07T23:24:26.328Z,100784.88
2023-04-07T23:26:54.688Z,100783.16
2023-04-07T23:29:23.490Z,100790.06
2023-04-07T23:31:52.873Z,100790.94
2023-04-07T23:34:21.728Z,100789.28
2023-04-07T23:36:49.381Z,100791.00
2023-04-07T23:39:17.126Z,100789.28
2023-04-07T23:41:46.213Z,100790.22
2023-04-07T23:44:14.764Z,100793.69
2023-04-07T23:46:42.702Z,100798.91
2023-04-07T23:49:10.700Z,100802.41
2023-04-07T23:51:39.415Z,100798.16
2023-04-07T23:54:07.313Z,100805.97
2023-04-07T23:56:35.091Z,100797.47
2023-04-07T23:59:04.346Z,100802.56
